Time;durP1;ratioP1;P1;durP2;ratioP2;P2;SDS_P1;SDS_P2;PMS_P1;PMS_P2;Temp;Humidity;BMP_temperature;BMP_pressure;BME280_temperature;BME280_humidity;BME280_pressure;Samples;Min_cycle;Max_cycle;Signal;HPM_P1;HPM_P2
2023/10/21 00:00:06;;;;;;;14.47;8.13;;;;;;;7.75;69.06;98581.91;5018880;27;110936;-54
2023/10/21 00:02:32;;;;;;;10.60;7.27;;;;;;;7.75;69.00;98583.91;5021878;27;99167;-55
2023/10/21 00:04:57;;;;;;;12.00;7.83;;;;;;;7.76;69.24;98582.63;5017883;27;97630;-55
2023/10/21 00:07:22;;;;;;;12.20;8.00;;;;;;;7.76;69.07;98585.38;5020183;27;96877;-54
2023/10/21 00:09:48;;;;;;;13.00;7.70;;;;;;;7.78;69.11;98586.31;5018504;27;100621;-55
2023/10/21 00:12:13;;;;;;;11.77;7.80;;;;;;;7.80;69.14;98589.25;5018722;27;103341;-55
2023/10/21 00:14:38;;;;;;;13.70;8.50;;;;;;;7.82;69.10;98591.44;5021056;27;99990;-55
2023/10/21 00:17:04;;;;;;;12.37;8.40;;;;;;;7.82;69.11;98594.19;5019671;27;96772;-55
2023/10/21 00:19:30;;;;;;;10.20;7.73;;;;;;;7.83;69.25;98601.19;5019606;27;98653;-55
2023/10/21 00:21:55;;;;;;;15.13;8.70;;;;;;;7.84;69.07;98591.63;5021893;27;96752;-55
2023/10/21 00:24:20;;;;;;;16.40;7.70;;;;;;;7.81;69.13;98590.00;5019729;27;96991;-54
2023/10/21 00:26:47;;;;;;;14.37;8.60;;;;;;;7.80;69.31;98596.78;5019325;27;97117;-54
2023/10/21 00:29:14;;;;;;;17.30;8.87;;;;;;;7.82;69.18;98608.72;5018588;27;97727;-55
2023/10/21 00:31:43;;;;;;;15.57;9.30;;;;;;;7.82;69.33;98607.97;5018789;27;97109;-55
2023/10/21 00:34:09;;;;;;;12.33;8.00;;;;;;;7.83;69.37;98593.66;5018964;27;97168;-55
2023/10/21 00:36:34;;;;;;;10.87;8.23;;;;;;;7.86;69.54;98589.06;5020949;27;96985;-55
2023/10/21 00:38:59;;;;;;;15.40;9.70;;;;;;;7.88;69.47;98594.75;5021382;27;96484;-55
2023/10/21 00:41:25;;;;;;;16.47;9.30;;;;;;;7.89;69.26;98590.75;5019866;27;97926;-55
2023/10/21 00:43:50;;;;;;;29.60;8.40;;;;;;;7.92;69.34;98605.44;5018705;27;97360;-55
2023/10/21 00:46:17;;;;;;;40.17;10.10;;;;;;;7.92;69.29;98592.41;5020822;27;97173;-55
2023/10/21 00:48:45;;;;;;;12.27;8.67;;;;;;;7.94;69.19;98605.63;5015765;27;97542;-55
2023/10/21 00:51:10;;;;;;;11.20;8.40;;;;;;;7.96;69.37;98608.56;5018033;27;99373;-55
2023/10/21 00:53:37;;;;;;;14.33;8.33;;;;;;;7.95;69.28;98621.59;5019777;27;96951;-55
2023/10/21 00:56:03;;;;;;;13.00;8.50;;;;;;;7.95;69.17;98616.06;5019708;27;97240;-54
2023/10/21 00:58:32;;;;;;;15.70;8.40;;;;;;;7.96;69.44;98616.81;5018868;27;97333;-55
2023/10/21 01:01:06;;;;;;;16.40;9.43;;;;;;;7.94;69.34;98619.38;5017564;27;96652;-55
2023/10/21 01:03:32;;;;;;;16.83;8.90;;;;;;;7.94;69.24;98624.88;5020222;27;97140;-55
2023/10/21 01:05:57;;;;;;;12.50;8.30;;;;;;;7.96;69.39;98634.06;5019537;27;96718;-55
2023/10/21 01:08:23;;;;;;;16.87;8.67;;;;;;;7.98;69.47;98636.28;5015593;27;97093;-55
2023/10/21 01:10:48;;;;;;;13.87;9.03;;;;;;;8.00;69.30;98636.47;5018826;27;97143;-55
2023/10/21 01:13:14;;;;;;;14.73;8.60;;;;;;;7.98;69.29;98633.53;5020108;27;97380;-55
2023/10/21 01:15:39;;;;;;;15.93;9.50;;;;;;;8.01;69.36;98635.19;5019646;27;98011;-54
2023/10/21 01:18:06;;;;;;;15.73;9.47;;;;;;;8.04;69.30;98640.31;5019815;27;97872;-55
2023/10/21 01:20:32;;;;;;;16.90;9.40;;;;;;;8.05;69.32;98639.06;5016393;27;97275;-55
2023/10/21 01:22:58;;;;;;;25.90;10.70;;;;;;;8.05;69.21;98636.31;5018414;27;97469;-54
2023/10/21 01:25:24;;;;;;;20.40;10.40;;;;;;;8.05;69.20;98639.06;5016904;27;97121;-54
2023/10/21 01:27:56;;;;;;;12.93;9.10;;;;;;;8.05;69.54;98647.31;5018482;27;98164;-55
2023/10/21 01:30:22;;;;;;;14.70;10.00;;;;;;;8.05;69.34;98663.09;5016127;27;97188;-55
2023/10/21 01:32:48;;;;;;;22.57;9.67;;;;;;;8.05;69.57;98663.09;5019465;27;97736;-55
2023/10/21 01:35:14;;;;;;;12.37;8.80;;;;;;;8.08;69.36;98673.00;5019802;27;99293;-55
2023/10/21 01:37:40;;;;;;;18.10;10.03;;;;;;;8.07;69.60;98666.78;5019354;27;97296;-55
2023/10/21 01:40:06;;;;;;;17.03;9.80;;;;;;;8.09;69.41;98669.72;5018494;27;97153;-55
2023/10/21 01:42:34;;;;;;;13.13;9.40;;;;;;;8.12;69.30;98662.38;5019416;27;97019;-55
2023/10/21 01:44:59;;;;;;;19.50;10.20;;;;;;;8.12;69.61;98665.16;5018394;27;104396;-55
2023/10/21 01:47:25;;;;;;;12.73;9.10;;;;;;;8.14;69.64;98662.56;5017521;27;97843;-55
2023/10/21 01:49:50;;;;;;;14.00;9.07;;;;;;;8.15;69.48;98666.78;5019615;27;97149;-55
2023/10/21 01:52:15;;;;;;;10.60;8.87;;;;;;;8.16;69.48;98671.03;5018913;27;96717;-55
2023/10/21 01:54:45;;;;;;;15.67;8.57;;;;;;;8.17;69.46;98675.25;5021022;27;96998;-54
2023/10/21 01:57:11;;;;;;;18.63;10.43;;;;;;;8.19;69.57;98687.22;5019697;27;97333;-55
2023/10/21 01:59:40;;;;;;;13.20;9.53;;;;;;;8.22;69.33;98677.13;5022616;27;97073;-54
2023/10/21 02:02:05;;;;;;;24.30;9.57;;;;;;;8.23;69.35;98668.31;5023376;27;97151;-54
2023/10/21 02:04:31;;;;;;;20.50;10.27;;;;;;;8.22;69.40;98677.13;5019773;27;97486;-54
2023/10/21 02:06:56;;;;;;;15.93;10.10;;;;;;;8.23;69.42;98673.09;5020505;27;96960;-55
2023/10/21 02:09:21;;;;;;;22.67;10.30;;;;;;;8.23;69.35;98678.59;5019094;27;97172;-55
2023/10/21 02:11:47;;;;;;;18.83;10.37;;;;;;;8.25;69.47;98670.53;5020236;27;103021;-54
2023/10/21 02:14:13;;;;;;;16.33;9.60;;;;;;;8.24;69.62;98677.31;5020956;27;97019;-54
2023/10/21 02:16:38;;;;;;;13.47;9.20;;;;;;;8.28;69.46;98675.66;5020262;27;96938;-55
2023/10/21 02:19:03;;;;;;;17.70;10.17;;;;;;;8.30;69.59;98683.38;5020653;27;97066;-55
2023/10/21 02:21:29;;;;;;;15.20;9.60;;;;;;;8.32;69.62;98676.03;5020492;27;97612;-55
2023/10/21 02:23:54;;;;;;;19.10;9.80;;;;;;;8.32;69.41;98689.06;5021011;27;97310;-54
2023/10/21 02:26:19;;;;;;;16.53;10.60;;;;;;;8.31;69.45;98676.59;5019350;27;97025;-55
2023/10/21 02:28:45;;;;;;;13.70;9.50;;;;;;;8.29;69.50;98699.19;5021192;27;105534;-55
2023/10/21 02:31:10;;;;;;;29.03;11.30;;;;;;;8.30;69.34;98677.88;5020547;27;96728;-55
2023/10/21 02:33:36;;;;;;;17.27;9.70;;;;;;;8.30;69.44;98673.09;5021480;27;97174;-54
2023/10/21 02:36:01;;;;;;;14.63;9.67;;;;;;;8.30;69.55;98678.59;5020617;27;107079;-54
2023/10/21 02:38:26;;;;;;;25.20;10.23;;;;;;;8.32;69.73;98692.56;5019967;27;106469;-55
2023/10/21 02:40:51;;;;;;;19.03;10.23;;;;;;;8.32;69.56;98700.81;5023222;27;96739;-54
2023/10/21 02:43:17;;;;;;;23.23;10.50;;;;;;;8.34;69.64;98703.78;5022806;27;97288;-55
2023/10/21 02:45:43;;;;;;;13.53;10.27;;;;;;;8.35;69.56;98702.50;5022354;27;97209;-55
2023/10/21 02:48:08;;;;;;;16.53;10.17;;;;;;;8.37;69.56;98699.94;5019389;27;97066;-55
2023/10/21 02:50:33;;;;;;;21.27;10.63;;;;;;;8.36;69.61;98700.47;5019576;27;96769;-55
2023/10/21 02:52:59;;;;;;;20.87;10.40;;;;;;;8.37;69.45;98685.41;5021811;27;97382;-55
2023/10/21 02:55:27;;;;;;;15.07;10.10;;;;;;;8.35;69.74;98685.97;5018599;27;106666;-55
2023/10/21 02:57:53;;;;;;;17.10;9.80;;;;;;;8.37;69.57;98699.19;5021867;27;97197;-55
2023/10/21 03:00:21;;;;;;;15.53;10.00;;;;;;;8.41;69.70;98710.56;5018148;28;96774;-55
2023/10/21 03:02:48;;;;;;;11.90;9.30;;;;;;;8.42;69.76;98706.56;5021314;27;97023;-55
2023/10/21 03:05:14;;;;;;;14.73;8.93;;;;;;;8.41;69.53;98692.03;5020098;27;98595;-55
2023/10/21 03:07:39;;;;;;;13.40;9.37;;;;;;;8.43;69.58;98706.00;5018924;27;97046;-55
2023/10/21 03:10:06;;;;;;;16.53;9.80;;;;;;;8.44;69.51;98696.47;5021345;27;102937;-55
2023/10/21 03:12:32;;;;;;;13.50;8.97;;;;;;;8.47;69.72;98702.88;5020481;27;97149;-55
2023/10/21 03:14:58;;;;;;;14.63;9.67;;;;;;;8.49;69.55;98701.03;5018243;27;97208;-55
2023/10/21 03:17:23;;;;;;;16.87;10.70;;;;;;;8.50;69.48;98707.28;5017593;27;96791;-55
2023/10/21 03:19:49;;;;;;;13.40;9.00;;;;;;;8.49;69.66;98708.59;5020413;27;97367;-55
2023/10/21 03:22:15;;;;;;;21.40;10.57;;;;;;;8.49;69.71;98706.53;5020133;28;97629;-55
2023/10/21 03:24:40;;;;;;;16.50;10.50;;;;;;;8.50;69.75;98704.53;5019441;28;97826;-55
2023/10/21 03:27:06;;;;;;;16.40;10.70;;;;;;;8.50;69.76;98710.03;5018527;27;97249;-54
2023/10/21 03:29:31;;;;;;;19.30;10.00;;;;;;;8.52;69.52;98712.97;5018894;27;96793;-55
2023/10/21 03:31:56;;;;;;;21.23;10.17;;;;;;;8.54;69.76;98713.16;5021360;27;97230;-55
2023/10/21 03:34:22;;;;;;;20.57;9.60;;;;;;;8.56;69.55;98718.16;5017226;27;109052;-54
2023/10/21 03:36:47;;;;;;;12.87;9.97;;;;;;;8.56;69.56;98718.88;5021468;27;97021;-55
2023/10/21 03:39:13;;;;;;;15.80;10.40;;;;;;;8.59;69.78;98726.03;5022311;27;96700;-55
2023/10/21 03:41:38;;;;;;;36.53;11.50;;;;;;;8.63;69.53;98729.19;5017316;27;97042;-55
2023/10/21 03:44:04;;;;;;;16.83;10.23;;;;;;;8.63;69.69;98720.16;5020715;28;97232;-55
2023/10/21 03:46:30;;;;;;;16.60;10.53;;;;;;;8.64;69.58;98732.66;5019509;28;97568;-55
2023/10/21 03:48:56;;;;;;;19.13;11.17;;;;;;;8.64;69.49;98716.13;5019404;28;97219;-55
2023/10/21 03:51:21;;;;;;;21.23;10.73;;;;;;;8.65;69.47;98728.63;5018769;28;97159;-55
2023/10/21 03:53:47;;;;;;;17.63;9.93;;;;;;;8.66;69.64;98744.63;5018696;28;97379;-55
2023/10/21 03:56:13;;;;;;;14.77;9.80;;;;;;;8.66;69.56;98738.38;5019656;28;96981;-55
2023/10/21 03:58:40;;;;;;;27.20;11.20;;;;;;;8.65;69.58;98729.34;5018753;27;96758;-55
2023/10/21 04:01:05;;;;;;;18.33;9.80;;;;;;;8.66;69.70;98724.59;5018256;27;96720;-55
2023/10/21 04:03:31;;;;;;;20.57;10.53;;;;;;;8.67;69.75;98726.78;5020528;28;96718;-55
2023/10/21 04:05:57;;;;;;;14.57;9.77;;;;;;;8.68;69.59;98720.00;5019231;28;97203;-56
2023/10/21 04:08:24;;;;;;;13.90;10.50;;;;;;;8.69;69.57;98731.78;5019934;28;97126;-55
2023/10/21 04:10:49;;;;;;;19.43;10.83;;;;;;;8.70;69.57;98727.72;5021548;28;97049;-55
2023/10/21 04:13:15;;;;;;;27.30;10.60;;;;;;;8.70;69.62;98722.94;5016134;27;97884;-55
2023/10/21 04:15:41;;;;;;;17.27;10.80;;;;;;;8.71;69.60;98721.63;5015516;27;98564;-54
2023/10/21 04:18:06;;;;;;;14.80;10.30;;;;;;;8.70;69.55;98724.94;5019615;28;96826;-55
2023/10/21 04:20:32;;;;;;;18.67;10.77;;;;;;;8.73;69.58;98723.88;5019583;27;96997;-54
2023/10/21 04:22:58;;;;;;;18.83;11.20;;;;;;;8.73;69.54;98723.88;5017385;28;96906;-55
2023/10/21 04:25:24;;;;;;;20.27;11.93;;;;;;;8.74;69.78;98725.31;5018811;27;97149;-55
2023/10/21 04:27:49;;;;;;;16.17;10.83;;;;;;;8.74;69.61;98719.81;5019727;28;96932;-55
2023/10/21 04:30:15;;;;;;;15.17;11.50;;;;;;;8.75;69.54;98716.53;5019826;28;97240;-54
2023/10/21 04:32:41;;;;;;;16.40;11.40;;;;;;;8.76;69.72;98714.47;5019660;27;96740;-55
2023/10/21 04:35:08;;;;;;;16.10;10.37;;;;;;;8.77;69.63;98718.72;5019860;28;97198;-55
2023/10/21 04:37:33;;;;;;;20.50;11.30;;;;;;;8.77;69.65;98716.72;5016838;27;97510;-55
2023/10/21 04:39:59;;;;;;;13.40;10.13;;;;;;;8.76;69.70;98723.50;5017865;27;96808;-55
2023/10/21 04:42:24;;;;;;;15.37;10.40;;;;;;;8.79;69.76;98730.66;5014622;27;98249;-55
2023/10/21 04:44:51;;;;;;;15.07;9.50;;;;;;;8.80;69.79;98734.13;5019546;27;97329;-54
2023/10/21 04:47:17;;;;;;;19.37;10.47;;;;;;;8.82;69.75;98745.38;5018388;27;97117;-55
2023/10/21 04:49:45;;;;;;;22.73;11.07;;;;;;;8.82;69.81;98748.13;5020151;27;97415;-54
2023/10/21 04:52:11;;;;;;;14.27;10.00;;;;;;;8.85;69.75;98756.03;5016772;27;97437;-54
2023/10/21 04:54:36;;;;;;;17.87;10.50;;;;;;;8.86;69.50;98763.00;5019220;27;97144;-54
2023/10/21 04:57:02;;;;;;;24.00;11.73;;;;;;;8.87;69.54;98766.50;5016182;27;97220;-54
2023/10/21 04:59:27;;;;;;;14.80;10.90;;;;;;;8.89;69.66;98763.94;5018198;28;98079;-55
2023/10/21 05:01:53;;;;;;;17.07;10.57;;;;;;;8.91;69.75;98766.88;5021463;27;99465;-55
2023/10/21 05:04:18;;;;;;;27.23;11.20;;;;;;;8.92;69.72;98760.09;5019514;27;97166;-55
2023/10/21 05:06:43;;;;;;;23.20;12.20;;;;;;;8.92;69.60;98760.09;5017538;27;104656;-54
2023/10/21 05:09:10;;;;;;;18.77;10.20;;;;;;;8.92;69.76;98757.31;5022182;27;96937;-55
2023/10/21 05:11:36;;;;;;;19.13;11.40;;;;;;;8.94;69.72;98754.75;5017263;27;97368;-54
2023/10/21 05:14:01;;;;;;;17.20;9.87;;;;;;;8.97;69.71;98775.72;5018779;27;97680;-55
2023/10/21 05:16:26;;;;;;;17.07;10.90;;;;;;;8.95;69.73;98753.47;5018138;27;97189;-55
2023/10/21 05:18:52;;;;;;;15.40;10.93;;;;;;;8.94;69.70;98766.53;5019291;27;96909;-55
2023/10/21 05:21:17;;;;;;;16.97;10.60;;;;;;;8.96;69.72;98768.72;5019669;27;109785;-55
2023/10/21 05:23:42;;;;;;;23.27;10.40;;;;;;;8.97;69.71;98764.69;5018121;28;109880;-55
2023/10/21 05:26:07;;;;;;;17.23;10.73;;;;;;;8.95;69.74;98761.75;5019194;27;97219;-55
2023/10/21 05:28:33;;;;;;;29.83;10.20;;;;;;;8.97;69.66;98776.44;5020250;27;97498;-55
2023/10/21 05:30:58;;;;;;;15.87;10.20;;;;;;;8.98;69.83;98766.91;5023239;27;96711;-55
2023/10/21 05:33:24;;;;;;;16.50;8.57;;;;;;;8.98;69.67;98766.91;5021301;27;97043;-55
2023/10/21 05:35:49;;;;;;;15.57;9.43;;;;;;;8.98;69.60;98783.44;5020052;27;97047;-55
2023/10/21 05:38:15;;;;;;;14.63;9.50;;;;;;;9.02;69.65;98794.09;5021471;27;97321;-55
2023/10/21 05:40:44;;;;;;;15.67;9.43;;;;;;;9.01;69.73;98787.13;5021946;27;97268;-55
2023/10/21 05:43:10;;;;;;;18.40;9.10;;;;;;;9.05;69.60;98793.00;5020222;27;98088;-55
2023/10/21 05:45:35;;;;;;;11.30;8.10;;;;;;;9.05;69.75;98793.75;5022603;27;96602;-55
2023/10/21 05:48:01;;;;;;;20.13;8.70;;;;;;;9.04;69.85;98802.56;5020308;27;97290;-55
2023/10/21 05:50:26;;;;;;;13.50;7.40;;;;;;;9.06;69.82;98800.72;5020796;27;97361;-55
2023/10/21 05:52:51;;;;;;;16.37;8.80;;;;;;;9.07;69.78;98804.22;5020713;27;97507;-55
2023/10/21 05:55:18;;;;;;;11.00;8.10;;;;;;;9.07;69.60;98804.97;5022054;28;97088;-55
2023/10/21 05:57:43;;;;;;;11.03;6.93;;;;;;;9.09;69.67;98818.19;5021909;27;97883;-54
2023/10/21 06:00:09;;;;;;;9.90;6.50;;;;;;;9.11;69.59;98812.88;5022491;27;97146;-55
2023/10/21 06:02:34;;;;;;;8.33;6.53;;;;;;;9.12;69.63;98823.34;5021380;27;97184;-54
2023/10/21 06:05:00;;;;;;;11.43;6.53;;;;;;;9.14;69.65;98831.09;5022571;27;97391;-55
2023/10/21 06:07:25;;;;;;;12.30;6.30;;;;;;;9.15;69.65;98824.25;5021243;27;98823;-55
2023/10/21 06:09:51;;;;;;;9.83;6.80;;;;;;;9.15;69.73;98835.31;5022084;27;97507;-55
2023/10/21 06:12:17;;;;;;;6.93;6.17;;;;;;;9.17;69.77;98847.25;5021450;27;97367;-55
2023/10/21 06:14:42;;;;;;;9.40;6.63;;;;;;;9.17;69.68;98855.53;5019587;27;96679;-55
2023/10/21 06:17:08;;;;;;;18.13;6.80;;;;;;;9.17;69.58;98838.97;5017635;27;96822;-55
2023/10/21 06:19:33;;;;;;;14.37;7.33;;;;;;;9.18;69.65;98872.84;5020618;28;97576;-54
2023/10/21 06:21:58;;;;;;;9.30;6.07;;;;;;;9.19;69.72;98847.44;5021466;27;97147;-55
2023/10/21 06:24:24;;;;;;;12.03;6.77;;;;;;;9.19;69.75;98855.72;5020656;27;96704;-54
2023/10/21 06:26:50;;;;;;;8.33;6.60;;;;;;;9.20;69.76;98861.97;5020264;27;96725;-55
2023/10/21 06:29:16;;;;;;;8.87;7.10;;;;;;;9.23;69.90;98869.16;5020487;27;97538;-54
2023/10/21 06:31:41;;;;;;;10.73;7.23;;;;;;;9.24;69.84;98865.09;5021849;27;97685;-55
2023/10/21 06:34:08;;;;;;;10.30;7.23;;;;;;;9.25;69.73;98864.56;5018854;27;96719;-54
2023/10/21 06:36:33;;;;;;;8.63;6.90;;;;;;;9.27;69.85;98880.56;5019709;27;96774;-54
2023/10/21 06:38:59;;;;;;;11.10;8.13;;;;;;;9.28;69.77;98882.03;5018129;27;97288;-54
2023/10/21 06:41:25;;;;;;;9.00;7.73;;;;;;;9.32;69.81;98879.63;5022080;27;97614;-54
2023/10/21 06:43:51;;;;;;;9.13;6.80;;;;;;;9.34;69.72;98885.38;5021503;27;97115;-54
2023/10/21 06:46:16;;;;;;;9.27;7.70;;;;;;;9.37;69.82;98889.03;5021664;27;97068;-54
2023/10/21 06:48:42;;;;;;;13.70;7.70;;;;;;;9.40;69.87;98891.44;5017730;27;99471;-54
2023/10/21 06:51:07;;;;;;;9.57;7.77;;;;;;;9.42;69.78;98896.41;5009266;27;96876;-55
2023/10/21 06:53:32;;;;;;;14.93;8.23;;;;;;;9.44;69.90;98899.34;5016162;27;101853;-54
2023/10/21 06:55:58;;;;;;;10.53;8.03;;;;;;;9.46;69.65;98914.06;5017848;27;97268;-54
2023/10/21 06:58:26;;;;;;;15.93;7.83;;;;;;;9.50;69.77;98919.22;5013914;27;97301;-54
2023/10/21 07:00:51;;;;;;;14.37;7.67;;;;;;;9.52;69.60;98922.91;5015248;27;96687;-54
2023/10/21 07:03:17;;;;;;;11.87;8.30;;;;;;;9.53;69.81;98918.88;5015348;27;96698;-54
2023/10/21 07:05:42;;;;;;;22.23;8.13;;;;;;;9.55;69.70;98919.09;5015358;27;97246;-54
2023/10/21 07:08:07;;;;;;;11.87;7.87;;;;;;;9.58;69.69;98920.00;5014500;27;97808;-54
2023/10/21 07:10:33;;;;;;;21.03;8.97;;;;;;;9.60;70.02;98917.44;5014415;27;97202;-54
2023/10/21 07:12:59;;;;;;;15.20;9.20;;;;;;;9.59;69.85;98918.72;5013952;27;97032;-54
2023/10/21 07:15:28;;;;;;;39.90;9.67;;;;;;;9.62;69.68;98920.38;5018514;27;96709;-54
2023/10/21 07:17:53;;;;;;;12.40;7.67;;;;;;;9.64;69.83;98926.81;5012774;27;97929;-54
2023/10/21 07:20:19;;;;;;;13.37;8.13;;;;;;;9.66;69.95;98932.53;5015665;27;98426;-54
2023/10/21 07:22:44;;;;;;;11.57;8.40;;;;;;;9.69;69.79;98936.22;5017463;27;97124;-54
2023/10/21 07:25:10;;;;;;;14.57;8.57;;;;;;;9.72;69.79;98937.84;5015693;27;97127;-54
2023/10/21 07:27:35;;;;;;;8.80;7.47;;;;;;;9.73;69.93;98940.09;5014918;27;97276;-54
2023/10/21 07:30:02;;;;;;;9.83;7.53;;;;;;;9.73;69.77;98937.31;5017214;27;97501;-54
2023/10/21 07:32:27;;;;;;;11.93;8.47;;;;;;;9.79;69.84;98953.69;5014169;27;97542;-54
2023/10/21 07:34:54;;;;;;;14.57;8.07;;;;;;;9.83;69.90;98959.59;5016564;27;97234;-54
2023/10/21 07:37:19;;;;;;;19.97;8.73;;;;;;;9.85;69.78;98966.03;5016519;27;98105;-54
2023/10/21 07:39:44;;;;;;;9.10;7.60;;;;;;;9.86;69.74;98959.25;5010694;27;99130;-54
2023/10/21 07:42:10;;;;;;;11.97;8.43;;;;;;;9.87;69.91;98980.03;5017662;27;96961;-54
2023/10/21 07:44:35;;;;;;;12.30;8.57;;;;;;;9.90;69.88;98972.66;5015252;27;96751;-54
2023/10/21 07:47:00;;;;;;;11.97;9.30;;;;;;;9.92;69.87;98987.41;5013747;27;97863;-54
2023/10/21 07:49:26;;;;;;;13.13;8.80;;;;;;;9.94;69.81;98993.09;5016156;28;109396;-54
2023/10/21 07:51:51;;;;;;;11.97;9.37;;;;;;;9.96;70.02;98987.78;5015811;27;97267;-54
2023/10/21 07:54:16;;;;;;;9.90;8.37;;;;;;;10.00;69.71;98988.13;5014555;27;97289;-54
2023/10/21 07:56:45;;;;;;;10.27;8.70;;;;;;;10.04;69.92;98994.03;5013007;27;106144;-54
2023/10/21 07:59:11;;;;;;;12.03;8.97;;;;;;;10.10;69.79;99006.94;5014612;27;97189;-54
2023/10/21 08:01:37;;;;;;;10.10;8.60;;;;;;;10.13;70.03;99012.06;5015170;27;96869;-54
2023/10/21 08:04:03;;;;;;;10.70;8.57;;;;;;;10.15;70.04;99015.00;5015361;27;97102;-54
2023/10/21 08:06:28;;;;;;;14.50;9.70;;;;;;;10.20;69.88;99016.13;5014036;27;97254;-54
2023/10/21 08:08:54;;;;;;;11.80;8.57;;;;;;;10.23;69.70;99021.28;5014386;27;97652;-54
2023/10/21 08:11:20;;;;;;;22.70;9.60;;;;;;;10.25;69.82;99029.03;5014709;27;96831;-54
2023/10/21 08:13:46;;;;;;;11.07;8.27;;;;;;;10.29;69.71;99034.91;5010958;27;97386;-55
2023/10/21 08:16:11;;;;;;;11.70;8.90;;;;;;;10.30;70.04;99037.16;5027563;27;98224;-54
2023/10/21 08:18:38;;;;;;;11.20;7.93;;;;;;;10.31;69.65;99043.38;5017656;27;99469;-54
2023/10/21 08:21:04;;;;;;;11.90;8.70;;;;;;;10.33;69.87;99044.31;5030217;27;97219;-54
2023/10/21 08:23:31;;;;;;;13.83;9.60;;;;;;;10.36;69.84;99050.78;5015756;27;97132;-54
2023/10/21 08:25:57;;;;;;;12.00;9.03;;;;;;;10.38;69.91;99056.47;5019567;27;99872;-54
2023/10/21 08:28:23;;;;;;;9.97;8.70;;;;;;;10.41;69.85;99058.16;5014217;27;97136;-54
2023/10/21 08:30:49;;;;;;;13.03;8.53;;;;;;;10.42;69.92;99065.13;5014924;27;97026;-54
2023/10/21 08:33:15;;;;;;;11.70;8.83;;;;;;;10.44;69.86;99063.28;5015677;27;96909;-54
2023/10/21 08:35:40;;;;;;;11.93;9.10;;;;;;;10.48;69.94;99074.72;5010847;27;96791;-54
2023/10/21 08:38:06;;;;;;;10.80;9.10;;;;;;;10.52;69.84;99079.91;5013915;27;97174;-54
2023/10/21 08:40:31;;;;;;;11.23;9.07;;;;;;;10.54;69.90;99085.59;5013847;27;97152;-54
2023/10/21 08:43:01;;;;;;;12.77;8.50;;;;;;;10.57;69.91;99098.31;5016091;28;96910;-55
2023/10/21 08:45:26;;;;;;;10.50;8.83;;;;;;;10.58;69.95;99099.78;5011614;27;97839;-54
2023/10/21 08:47:54;;;;;;;13.43;8.83;;;;;;;10.62;69.87;99102.91;5012657;27;97346;-54
2023/10/21 08:50:20;;;;;;;11.20;8.60;;;;;;;10.62;69.77;99105.69;5014092;27;97023;-55
2023/10/21 08:52:48;;;;;;;11.47;8.20;;;;;;;10.65;69.82;99113.59;5011493;27;96941;-54
2023/10/21 08:55:14;;;;;;;10.90;8.50;;;;;;;10.67;69.78;99124.13;5014063;27;96704;-55
2023/10/21 08:57:39;;;;;;;12.43;8.93;;;;;;;10.67;69.79;99127.63;5030047;27;98859;-54
2023/10/21 09:00:05;;;;;;;12.40;9.20;;;;;;;10.70;69.89;99123.00;5015882;27;97119;-54
2023/10/21 09:02:31;;;;;;;11.07;8.00;;;;;;;10.72;70.00;99137.75;5016101;27;96819;-55
2023/10/21 09:04:57;;;;;;;11.10;9.10;;;;;;;10.75;69.93;99146.97;5011424;27;107176;-55
2023/10/21 09:07:22;;;;;;;11.90;9.30;;;;;;;10.77;69.92;99149.94;5015290;27;106494;-55
2023/10/21 09:09:48;;;;;;;13.60;9.30;;;;;;;10.79;69.81;99158.44;5010977;27;96748;-54
2023/10/21 09:12:14;;;;;;;16.23;9.30;;;;;;;10.80;69.88;99170.25;5015138;27;96726;-55
2023/10/21 09:14:55;;;;;;;9.97;8.90;;;;;;;10.83;70.01;99161.56;5012802;27;100300;-55
2023/10/21 09:17:34;;;;;;;12.63;8.57;;;;;;;10.83;69.98;99172.63;5033361;27;100298;-55
2023/10/21 09:19:59;;;;;;;12.23;8.57;;;;;;;10.86;69.85;99179.84;5019156;27;97003;-55
2023/10/21 09:22:27;;;;;;;11.80;9.70;;;;;;;10.90;69.90;99179.44;5018817;27;97535;-55
2023/10/21 09:25:15;;;;;;;11.40;8.87;;;;;;;10.93;70.00;99194.97;5018492;27;97178;-55
2023/10/21 09:27:59;;;;;;;10.53;7.90;;;;;;;10.96;70.17;99197.34;5020047;27;96861;-54
2023/10/21 09:30:26;;;;;;;11.80;9.00;;;;;;;11.00;70.10;99208.06;5017617;27;96684;-54
2023/10/21 09:33:01;;;;;;;8.73;7.83;;;;;;;11.04;70.02;99213.94;5017550;27;97209;-55
2023/10/21 09:35:27;;;;;;;8.50;7.27;;;;;;;11.06;70.10;99214.88;5016603;28;97109;-55
2023/10/21 09:37:53;;;;;;;9.00;8.03;;;;;;;11.12;70.01;99214.69;5020256;27;97242;-55
2023/10/21 09:40:20;;;;;;;11.60;8.03;;;;;;;11.17;70.00;99231.13;5020033;28;97119;-55
2023/10/21 09:42:48;;;;;;;9.60;7.90;;;;;;;11.22;70.00;99226.69;5020562;28;97126;-55
2023/10/21 09:45:16;;;;;;;12.80;7.97;;;;;;;11.25;70.05;99225.56;5017973;28;96633;-55
2023/10/21 09:47:42;;;;;;;10.17;7.13;;;;;;;11.30;70.05;99230.91;5019761;28;97654;-55
2023/10/21 09:50:10;;;;;;;10.07;8.40;;;;;;;11.36;70.21;99234.22;5019821;27;96804;-55
2023/10/21 09:52:54;;;;;;;8.87;7.70;;;;;;;11.47;70.29;99236.59;5020630;27;96692;-54
2023/10/21 09:55:25;;;;;;;8.10;7.30;;;;;;;11.60;70.21;99237.69;5017472;28;97419;-55
2023/10/21 09:57:55;;;;;;;9.93;7.27;;;;;;;11.74;70.21;99236.19;5018507;28;97117;-54
2023/10/21 10:00:22;;;;;;;8.40;6.70;;;;;;;11.84;70.27;99250.91;5017075;28;97202;-54
2023/10/21 10:02:48;;;;;;;6.90;6.30;;;;;;;11.94;70.10;99244.25;5016924;27;97154;-54
2023/10/21 10:05:16;;;;;;;7.20;6.33;;;;;;;12.10;70.26;99247.69;5020321;28;97098;-54
2023/10/21 10:07:44;;;;;;;6.60;5.97;;;;;;;12.30;70.41;99251.50;5019860;28;96754;-55
2023/10/21 10:10:15;;;;;;;8.27;6.50;;;;;;;12.42;70.22;99247.75;5020897;27;96932;-55
2023/10/21 10:13:01;;;;;;;6.97;5.93;;;;;;;12.54;70.30;99261.91;5019067;28;97086;-55
2023/10/21 10:15:34;;;;;;;6.90;6.07;;;;;;;12.60;70.27;99270.75;5022293;28;96990;-55
2023/10/21 10:18:02;;;;;;;6.77;6.03;;;;;;;12.65;70.24;99278.13;5022865;28;97180;-55
2023/10/21 10:20:28;;;;;;;5.70;5.20;;;;;;;12.72;70.24;99275.31;5019429;28;97405;-55
2023/10/21 10:23:10;;;;;;;5.13;4.73;;;;;;;12.79;70.32;99285.59;5019845;28;97165;-55
2023/10/21 10:25:39;;;;;;;5.67;5.10;;;;;;;12.84;70.37;99281.13;5022168;28;97149;-55
2023/10/21 10:28:08;;;;;;;5.70;5.10;;;;;;;12.93;70.50;99284.03;5021932;27;96710;-55
2023/10/21 10:30:34;;;;;;;7.27;5.17;;;;;;;13.02;70.46;99290.31;5023576;28;97303;-55
2023/10/21 10:33:12;;;;;;;4.97;4.40;;;;;;;13.07;70.50;99289.34;5022316;27;97367;-55
2023/10/21 10:35:49;;;;;;;4.77;4.30;;;;;;;13.10;70.51;99304.88;5019467;27;97169;-55
2023/10/21 10:38:37;;;;;;;6.47;4.13;;;;;;;13.15;70.90;99304.66;5020722;27;97220;-55
2023/10/21 10:41:09;;;;;;;5.07;4.37;;;;;;;13.22;70.65;99305.88;5022273;27;97169;-55
2023/10/21 10:43:38;;;;;;;4.23;3.87;;;;;;;13.27;70.58;99304.94;5023673;27;96713;-55
2023/10/21 10:46:05;;;;;;;4.23;3.83;;;;;;;13.32;70.62;99309.53;5021379;27;96901;-55
2023/10/21 10:48:31;;;;;;;4.77;4.20;;;;;;;13.39;70.62;99311.50;5023429;27;97090;-55
2023/10/21 10:50:58;;;;;;;3.80;3.50;;;;;;;13.46;70.71;99311.44;5021881;27;96699;-55
2023/10/21 10:53:24;;;;;;;3.40;3.20;;;;;;;13.56;70.76;99314.28;5022182;27;97352;-55
2023/10/21 10:55:53;;;;;;;4.40;3.97;;;;;;;13.68;70.75;99323.66;5018603;27;97515;-56
2023/10/21 10:58:20;;;;;;;6.77;3.90;;;;;;;13.80;70.91;99324.63;5021351;27;96739;-55
2023/10/21 11:00:46;;;;;;;4.10;3.20;;;;;;;13.91;70.57;99318.59;5011496;27;96896;-55
2023/10/21 11:03:23;;;;;;;7.00;3.10;;;;;;;13.98;70.64;99320.56;5016265;27;96626;-55
2023/10/21 11:05:49;;;;;;;3.27;2.70;;;;;;;14.05;70.61;99313.47;5014251;27;96732;-55
2023/10/21 11:08:15;;;;;;;3.77;3.00;;;;;;;14.11;70.60;99320.25;5014731;27;99534;-55
2023/10/21 11:10:41;;;;;;;3.17;2.97;;;;;;;14.20;70.69;99322.38;5016988;27;97220;-55
2023/10/21 11:13:06;;;;;;;2.70;2.50;;;;;;;14.33;70.59;99324.84;5014009;27;97011;-55
2023/10/21 11:15:40;;;;;;;4.10;3.53;;;;;;;14.44;70.69;99329.16;5016766;27;97565;-55
2023/10/21 11:18:06;;;;;;;3.00;2.80;;;;;;;14.57;70.71;99328.06;5018173;27;96947;-55
2023/10/21 11:20:32;;;;;;;2.73;2.50;;;;;;;14.78;70.77;99320.72;5015341;27;97308;-55
2023/10/21 11:22:57;;;;;;;5.70;2.10;;;;;;;14.99;70.41;99323.06;5017564;27;96625;-55
2023/10/21 11:25:24;;;;;;;2.23;2.13;;;;;;;15.17;70.32;99321.69;5015366;27;105215;-55